sensor_id;sensor_type;location;lat;lon;timestamp;pressure;altitude;pressure_sealevel;temperature;humidity
13235;BME280;6683;48.506;9.050;2023-05-16T00:01:26;97787.66;;;14.63;69.47
13235;BME280;6683;48.506;9.050;2023-05-16T00:04:29;97776.25;;;14.62;69.41
13235;BME280;6683;48.506;9.050;2023-05-16T00:07:33;97773.78;;;14.61;69.55
13235;BME280;6683;48.506;9.050;2023-05-16T00:10:36;97775.03;;;14.58;69.55
13235;BME280;6683;48.506;9.050;2023-05-16T00:13:38;97772.63;;;14.57;69.32
13235;BME280;6683;48.506;9.050;2023-05-16T00:16:43;97779.16;;;14.54;69.17
13235;BME280;6683;48.506;9.050;2023-05-16T00:19:47;97780.66;;;14.50;69.19
13235;BME280;6683;48.506;9.050;2023-05-16T00:22:49;97779.03;;;14.49;69.57
13235;BME280;6683;48.506;9.050;2023-05-16T00:25:52;97773.38;;;14.46;69.49
13235;BME280;6683;48.506;9.050;2023-05-16T00:28:54;97770.72;;;14.46;69.44
13235;BME280;6683;48.506;9.050;2023-05-16T00:31:57;97779.09;;;14.43;69.49
13235;BME280;6683;48.506;9.050;2023-05-16T00:35:00;97777.69;;;14.40;69.46
13235;BME280;6683;48.506;9.050;2023-05-16T00:38:02;97776.28;;;14.37;69.53
13235;BME280;6683;48.506;9.050;2023-05-16T00:41:05;97774.69;;;14.36;69.62
13235;BME280;6683;48.506;9.050;2023-05-16T00:44:07;97774.69;;;14.36;69.80
13235;BME280;6683;48.506;9.050;2023-05-16T00:47:11;97781.59;;;14.37;70.13
13235;BME280;6683;48.506;9.050;2023-05-16T00:50:16;97777.94;;;14.38;69.91
13235;BME280;6683;48.506;9.050;2023-05-16T00:53:19;97774.69;;;14.36;69.71
13235;BME280;6683;48.506;9.050;2023-05-16T00:56:22;97775.69;;;14.35;69.91
13235;BME280;6683;48.506;9.050;2023-05-16T00:59:24;97769.81;;;14.33;69.76
13235;BME280;6683;48.506;9.050;2023-05-16T01:02:29;97769.81;;;14.33;70.04
13235;BME280;6683;48.506;9.050;2023-05-16T01:05:32;97767.16;;;14.33;69.80
13235;BME280;6683;48.506;9.050;2023-05-16T01:08:35;97764.50;;;14.33;69.78
13235;BME280;6683;48.506;9.050;2023-05-16T01:11:45;97761.69;;;14.28;69.66
13235;BME280;6683;48.506;9.050;2023-05-16T01:15:04;97766.38;;;14.26;70.07
13235;BME280;6683;48.506;9.050;2023-05-16T01:18:17;97774.34;;;14.26;69.74
13235;BME280;6683;48.506;9.050;2023-05-16T01:21:37;97771.31;;;14.23;70.08
13235;BME280;6683;48.506;9.050;2023-05-16T01:24:50;97770.50;;;14.22;69.86
13235;BME280;6683;48.506;9.050;2023-05-16T01:27:58;97766.44;;;14.20;69.75
13235;BME280;6683;48.506;9.050;2023-05-16T01:31:00;97765.63;;;14.19;69.73
13235;BME280;6683;48.506;9.050;2023-05-16T01:34:03;97770.50;;;14.22;69.80
13235;BME280;6683;48.506;9.050;2023-05-16T01:37:13;97772.00;;;14.18;69.84
13235;BME280;6683;48.506;9.050;2023-05-16T01:40:25;97775.88;;;14.16;69.63
13235;BME280;6683;48.506;9.050;2023-05-16T01:43:36;97770.78;;;14.14;70.00
13235;BME280;6683;48.506;9.050;2023-05-16T01:46:46;97776.69;;;14.16;69.92
13235;BME280;6683;48.506;9.050;2023-05-16T01:49:54;97770.56;;;14.16;69.99
13235;BME280;6683;48.506;9.050;2023-05-16T01:53:05;97772.19;;;14.17;70.21
13235;BME280;6683;48.506;9.050;2023-05-16T01:56:14;97771.38;;;14.16;70.22
13235;BME280;6683;48.506;9.050;2023-05-16T01:59:19;97774.03;;;14.16;70.08
13235;BME280;6683;48.506;9.050;2023-05-16T02:02:22;97775.66;;;14.17;70.02
13235;BME280;6683;48.506;9.050;2023-05-16T02:05:24;97774.66;;;14.18;70.04
13235;BME280;6683;48.506;9.050;2023-05-16T02:08:27;97783.63;;;14.17;70.09
13235;BME280;6683;48.506;9.050;2023-05-16T02:11:30;97783.63;;;14.17;70.12
13235;BME280;6683;48.506;9.050;2023-05-16T02:14:34;97788.69;;;14.19;70.35
13235;BME280;6683;48.506;9.050;2023-05-16T02:17:37;97778.31;;;14.17;70.23
13235;BME280;6683;48.506;9.050;2023-05-16T02:20:39;97780.97;;;14.17;70.20
13235;BME280;6683;48.506;9.050;2023-05-16T02:23:41;97777.50;;;14.17;70.29
13235;BME280;6683;48.506;9.050;2023-05-16T02:26:44;97778.75;;;14.14;70.10
13235;BME280;6683;48.506;9.050;2023-05-16T02:29:47;97783.03;;;14.15;70.23
13235;BME280;6683;48.506;9.050;2023-05-16T02:32:50;97779.78;;;14.13;70.33
13235;BME280;6683;48.506;9.050;2023-05-16T02:35:53;97779.19;;;14.11;70.24
13235;BME280;6683;48.506;9.050;2023-05-16T02:38:56;97774.31;;;14.08;70.47
13235;BME280;6683;48.506;9.050;2023-05-16T02:41:58;97776.53;;;14.11;70.37
13235;BME280;6683;48.506;9.050;2023-05-16T02:45:02;97782.66;;;14.12;70.36
13235;BME280;6683;48.506;9.050;2023-05-16T02:48:05;97784.28;;;14.13;70.31
13235;BME280;6683;48.506;9.050;2023-05-16T02:51:07;97791.22;;;14.14;70.44
13235;BME280;6683;48.506;9.050;2023-05-16T02:54:10;97778.75;;;14.14;70.19
13235;BME280;6683;48.506;9.050;2023-05-16T02:57:12;97777.94;;;14.14;70.17
13235;BME280;6683;48.506;9.050;2023-05-16T03:00:17;97780.59;;;14.14;70.23
13235;BME280;6683;48.506;9.050;2023-05-16T03:03:20;97781.38;;;14.14;70.38
13235;BME280;6683;48.506;9.050;2023-05-16T03:06:22;97774.25;;;14.15;70.25
13235;BME280;6683;48.506;9.050;2023-05-16T03:09:25;97772.41;;;14.15;70.25
13235;BME280;6683;48.506;9.050;2023-05-16T03:12:27;97771.59;;;14.15;70.16
13235;BME280;6683;48.506;9.050;2023-05-16T03:15:31;97775.28;;;14.14;70.02
13235;BME280;6683;48.506;9.050;2023-05-16T03:18:33;97778.75;;;14.14;70.46
13235;BME280;6683;48.506;9.050;2023-05-16T03:21:35;97778.75;;;14.14;70.20
13235;BME280;6683;48.506;9.050;2023-05-16T03:24:38;97774.47;;;14.13;70.19
13235;BME280;6683;48.506;9.050;2023-05-16T03:27:40;97777.13;;;14.13;70.54
13235;BME280;6683;48.506;9.050;2023-05-16T03:30:44;97778.97;;;14.13;70.33
13235;BME280;6683;48.506;9.050;2023-05-16T03:33:46;97778.97;;;14.13;70.28
13235;BME280;6683;48.506;9.050;2023-05-16T03:36:49;97783.25;;;14.14;70.25
13235;BME280;6683;48.506;9.050;2023-05-16T03:39:52;97776.31;;;14.13;70.40
13235;BME280;6683;48.506;9.050;2023-05-16T03:42:54;97781.03;;;14.11;70.21
13235;BME280;6683;48.506;9.050;2023-05-16T03:46:00;97783.09;;;14.09;70.43
13235;BME280;6683;48.506;9.050;2023-05-16T03:49:03;97774.53;;;14.07;70.32
13235;BME280;6683;48.506;9.050;2023-05-16T03:52:06;97772.94;;;14.06;70.48
13235;BME280;6683;48.506;9.050;2023-05-16T03:55:09;97771.28;;;14.05;70.37
13235;BME280;6683;48.506;9.050;2023-05-16T03:58:14;97773.94;;;14.05;70.28
13235;BME280;6683;48.506;9.050;2023-05-16T04:01:17;97781.91;;;14.05;70.45
13235;BME280;6683;48.506;9.050;2023-05-16T04:04:20;97780.28;;;14.04;70.64
13235;BME280;6683;48.506;9.050;2023-05-16T04:07:23;97791.69;;;14.04;70.62
13235;BME280;6683;48.506;9.050;2023-05-16T04:10:25;97796.22;;;14.04;70.75
13235;BME280;6683;48.506;9.050;2023-05-16T04:13:27;97797.59;;;14.06;70.82
13235;BME280;6683;48.506;9.050;2023-05-16T04:16:31;97805.97;;;14.10;70.82
13235;BME280;6683;48.506;9.050;2023-05-16T04:19:34;97791.06;;;14.09;70.63
13235;BME280;6683;48.506;9.050;2023-05-16T04:22:36;97794.06;;;14.12;70.46
13235;BME280;6683;48.506;9.050;2023-05-16T04:25:39;97796.31;;;14.15;70.61
13235;BME280;6683;48.506;9.050;2023-05-16T04:28:42;97797.13;;;14.16;70.66
13235;BME280;6683;48.506;9.050;2023-05-16T04:31:47;97798.53;;;14.18;70.74
13235;BME280;6683;48.506;9.050;2023-05-16T04:34:50;97795.66;;;14.20;70.69
13235;BME280;6683;48.506;9.050;2023-05-16T04:37:53;97803.16;;;14.23;70.92
13235;BME280;6683;48.506;9.050;2023-05-16T04:40:55;97808.63;;;14.28;70.63
13235;BME280;6683;48.506;9.050;2023-05-16T04:43:59;97805.56;;;14.31;70.65
13235;BME280;6683;48.506;9.050;2023-05-16T04:47:05;97799.81;;;14.34;70.71
13235;BME280;6683;48.506;9.050;2023-05-16T04:50:09;97801.00;;;14.38;70.76
13235;BME280;6683;48.506;9.050;2023-05-16T04:53:11;97800.34;;;14.43;70.99
13235;BME280;6683;48.506;9.050;2023-05-16T04:56:17;97798.06;;;14.46;70.80
13235;BME280;6683;48.506;9.050;2023-05-16T04:59:20;97806.41;;;14.50;70.82
13235;BME280;6683;48.506;9.050;2023-05-16T05:02:24;97801.47;;;14.53;70.90
13235;BME280;6683;48.506;9.050;2023-05-16T05:05:26;97806.56;;;14.55;70.94
13235;BME280;6683;48.506;9.050;2023-05-16T05:08:29;97801.59;;;14.58;70.85
13235;BME280;6683;48.506;9.050;2023-05-16T05:11:31;97809.97;;;14.62;71.00
13235;BME280;6683;48.506;9.050;2023-05-16T05:14:34;97808.47;;;14.66;71.05
13235;BME280;6683;48.506;9.050;2023-05-16T05:17:38;97813.34;;;14.69;71.08
13235;BME280;6683;48.506;9.050;2023-05-16T05:20:40;97806.78;;;14.71;71.07
13235;BME280;6683;48.506;9.050;2023-05-16T05:23:43;97817.56;;;14.76;70.81
13235;BME280;6683;48.506;9.050;2023-05-16T05:26:45;97819.56;;;14.81;71.12
13235;BME280;6683;48.506;9.050;2023-05-16T05:29:48;97819.91;;;14.84;71.03
13235;BME280;6683;48.506;9.050;2023-05-16T05:32:53;97829.50;;;14.85;70.94
13235;BME280;6683;48.506;9.050;2023-05-16T05:35:56;97823.16;;;14.86;70.90
13235;BME280;6683;48.506;9.050;2023-05-16T05:38:58;97828.03;;;14.89;71.08
13235;BME280;6683;48.506;9.050;2023-05-16T05:42:01;97824.91;;;14.92;70.77
13235;BME280;6683;48.506;9.050;2023-05-16T05:45:05;97820.19;;;14.94;70.93
13235;BME280;6683;48.506;9.050;2023-05-16T05:48:10;97829.34;;;14.98;70.99
13235;BME280;6683;48.506;9.050;2023-05-16T05:51:13;97821.72;;;15.02;70.77
13235;BME280;6683;48.506;9.050;2023-05-16T05:54:15;97818.88;;;15.03;70.75
13235;BME280;6683;48.506;9.050;2023-05-16T05:57:17;97828.44;;;15.04;70.79
13235;BME280;6683;48.506;9.050;2023-05-16T06:00:21;97825.59;;;15.06;70.65
13235;BME280;6683;48.506;9.050;2023-05-16T06:03:25;97839.22;;;15.09;70.77
13235;BME280;6683;48.506;9.050;2023-05-16T06:06:28;97834.75;;;15.10;70.64
13235;BME280;6683;48.506;9.050;2023-05-16T06:09:30;97836.13;;;15.12;70.81
13235;BME280;6683;48.506;9.050;2023-05-16T06:12:33;97837.75;;;15.13;70.87
13235;BME280;6683;48.506;9.050;2023-05-16T06:15:36;97835.25;;;15.18;70.83
13235;BME280;6683;48.506;9.050;2023-05-16T06:18:40;97840.34;;;15.20;70.99
13235;BME280;6683;48.506;9.050;2023-05-16T06:21:42;97836.19;;;15.24;70.83
13235;BME280;6683;48.506;9.050;2023-05-16T06:24:45;97838.19;;;15.29;70.82
13235;BME280;6683;48.506;9.050;2023-05-16T06:27:47;97845.50;;;15.33;70.81
13235;BME280;6683;48.506;9.050;2023-05-16T06:30:49;97851.16;;;15.37;70.68
13235;BME280;6683;48.506;9.050;2023-05-16T06:33:53;97853.16;;;15.41;70.68
13235;BME280;6683;48.506;9.050;2023-05-16T06:36:56;97851.69;;;15.45;70.60
13235;BME280;6683;48.506;9.050;2023-05-16T06:39:59;97860.03;;;15.49;70.60
13235;BME280;6683;48.506;9.050;2023-05-16T06:43:02;97862.44;;;15.50;70.54
13235;BME280;6683;48.506;9.050;2023-05-16T06:46:04;97849.72;;;15.52;70.53
13235;BME280;6683;48.506;9.050;2023-05-16T06:49:08;97850.13;;;15.56;70.47
13235;BME280;6683;48.506;9.050;2023-05-16T06:52:11;97850.22;;;15.61;70.65
13235;BME280;6683;48.506;9.050;2023-05-16T06:55:13;97856.13;;;15.63;70.41
13235;BME280;6683;48.506;9.050;2023-05-16T06:58:24;97857.31;;;15.67;70.38
13235;BME280;6683;48.506;9.050;2023-05-16T07:01:27;97859.97;;;15.67;70.19
13235;BME280;6683;48.506;9.050;2023-05-16T07:04:31;97852.78;;;15.67;70.20
13235;BME280;6683;48.506;9.050;2023-05-16T07:07:34;97855.59;;;15.72;69.96
13235;BME280;6683;48.506;9.050;2023-05-16T07:10:37;97856.78;;;15.76;70.11
13235;BME280;6683;48.506;9.050;2023-05-16T07:13:39;97861.84;;;15.78;69.87
13235;BME280;6683;48.506;9.050;2023-05-16T07:16:42;97860.59;;;15.80;70.04
13235;BME280;6683;48.506;9.050;2023-05-16T07:19:46;97867.31;;;15.83;69.68
13235;BME280;6683;48.506;9.050;2023-05-16T07:22:48;97853.53;;;15.86;69.87
13235;BME280;6683;48.506;9.050;2023-05-16T07:25:51;97862.47;;;15.91;69.84
13235;BME280;6683;48.506;9.050;2023-05-16T07:28:53;97857.28;;;15.96;69.38
13235;BME280;6683;48.506;9.050;2023-05-16T07:31:56;97853.94;;;16.01;69.42
13235;BME280;6683;48.506;9.050;2023-05-16T07:35:01;97855.66;;;16.07;69.46
13235;BME280;6683;48.506;9.050;2023-05-16T07:38:04;97847.25;;;16.10;69.16
13235;BME280;6683;48.506;9.050;2023-05-16T07:41:06;97861.47;;;16.16;69.16
13235;BME280;6683;48.506;9.050;2023-05-16T07:44:09;97862.63;;;16.20;68.87
13235;BME280;6683;48.506;9.050;2023-05-16T07:47:11;97861.59;;;16.21;68.87
13235;BME280;6683;48.506;9.050;2023-05-16T07:50:15;97864.28;;;16.21;68.80
13235;BME280;6683;48.506;9.050;2023-05-16T07:53:18;97865.63;;;16.23;68.61
13235;BME280;6683;48.506;9.050;2023-05-16T07:56:20;97876.09;;;16.25;68.65
13235;BME280;6683;48.506;9.050;2023-05-16T07:59:23;97870.75;;;16.25;68.39
13235;BME280;6683;48.506;9.050;2023-05-16T08:02:25;97868.09;;;16.25;68.26
13235;BME280;6683;48.506;9.050;2023-05-16T08:05:31;97869.94;;;16.24;68.19
13235;BME280;6683;48.506;9.050;2023-05-16T08:08:34;97871.91;;;16.29;68.16
13235;BME280;6683;48.506;9.050;2023-05-16T08:11:37;97871.44;;;16.32;68.04
13235;BME280;6683;48.506;9.050;2023-05-16T08:14:40;97873.28;;;16.31;67.96
13235;BME280;6683;48.506;9.050;2023-05-16T08:17:42;97878.28;;;16.28;67.88
13235;BME280;6683;48.506;9.050;2023-05-16T08:20:46;97886.16;;;16.23;67.60
13235;BME280;6683;48.506;9.050;2023-05-16T08:23:49;97887.41;;;16.20;67.39
13235;BME280;6683;48.506;9.050;2023-05-16T08:26:51;97885.00;;;16.19;67.54
13235;BME280;6683;48.506;9.050;2023-05-16T08:29:53;97885.19;;;16.17;67.66
13235;BME280;6683;48.506;9.050;2023-05-16T08:32:56;97889.03;;;16.21;67.50
13235;BME280;6683;48.506;9.050;2023-05-16T08:36:00;97888.34;;;16.26;67.45
13235;BME280;6683;48.506;9.050;2023-05-16T08:39:03;97890.31;;;16.30;67.26
13235;BME280;6683;48.506;9.050;2023-05-16T08:42:06;97894.97;;;16.35;67.16
13235;BME280;6683;48.506;9.050;2023-05-16T08:45:10;97898.44;;;16.35;67.23
13235;BME280;6683;48.506;9.050;2023-05-16T08:48:14;97900.06;;;16.36;66.91
13235;BME280;6683;48.506;9.050;2023-05-16T08:51:20;97905.13;;;16.38;66.83
13235;BME280;6683;48.506;9.050;2023-05-16T08:54:23;97905.97;;;16.38;66.65
13235;BME280;6683;48.506;9.050;2023-05-16T08:57:26;97913.13;;;16.38;66.96
13235;BME280;6683;48.506;9.050;2023-05-16T09:00:30;97913.94;;;16.38;66.66
13235;BME280;6683;48.506;9.050;2023-05-16T09:03:33;97917.44;;;16.39;66.34
13235;BME280;6683;48.506;9.050;2023-05-16T09:06:37;97913.94;;;16.38;66.25
13235;BME280;6683;48.506;9.050;2023-05-16T09:09:40;97915.78;;;16.38;66.38
13235;BME280;6683;48.506;9.050;2023-05-16T09:12:44;97922.19;;;16.37;66.40
13235;BME280;6683;48.506;9.050;2023-05-16T09:16:10;97917.31;;;16.34;66.27
13235;BME280;6683;48.506;9.050;2023-05-16T09:19:13;97928.63;;;16.29;65.92
13235;BME280;6683;48.506;9.050;2023-05-16T09:22:18;97924.81;;;16.25;66.18
13235;BME280;6683;48.506;9.050;2023-05-16T09:25:22;97925.28;;;16.22;66.06
13235;BME280;6683;48.506;9.050;2023-05-16T09:28:25;97926.53;;;16.20;66.00
13235;BME280;6683;48.506;9.050;2023-05-16T09:31:28;97928.28;;;16.14;65.99
13235;BME280;6683;48.506;9.050;2023-05-16T09:34:40;97929.53;;;16.12;65.89
13235;BME280;6683;48.506;9.050;2023-05-16T09:37:46;97933.22;;;16.11;65.93
13235;BME280;6683;48.506;9.050;2023-05-16T09:40:49;97937.75;;;16.10;65.84
13235;BME280;6683;48.506;9.050;2023-05-16T09:43:52;97936.72;;;16.11;65.85
13235;BME280;6683;48.506;9.050;2023-05-16T09:46:55;97936.13;;;16.09;65.98
13235;BME280;6683;48.506;9.050;2023-05-16T09:49:58;97942.28;;;16.10;65.69
13235;BME280;6683;48.506;9.050;2023-05-16T09:53:03;97937.38;;;16.07;65.92
13235;BME280;6683;48.506;9.050;2023-05-16T09:56:10;97951.75;;;16.06;65.77
13235;BME280;6683;48.506;9.050;2023-05-16T09:59:14;97947.44;;;16.05;65.80
13235;BME280;6683;48.506;9.050;2023-05-16T10:02:16;97939.47;;;16.05;65.93
13235;BME280;6683;48.506;9.050;2023-05-16T10:05:19;97940.28;;;16.05;65.87
13235;BME280;6683;48.506;9.050;2023-05-16T10:08:25;97936.59;;;16.06;65.82
13235;BME280;6683;48.506;9.050;2023-05-16T10:11:27;97936.13;;;16.09;65.79
13235;BME280;6683;48.506;9.050;2023-05-16T10:14:35;97941.44;;;16.09;65.72
13235;BME280;6683;48.506;9.050;2023-05-16T10:17:39;97941.00;;;16.12;65.79
13235;BME280;6683;48.506;9.050;2023-05-16T10:20:46;97943.66;;;16.12;65.50
13235;BME280;6683;48.506;9.050;2023-05-16T10:23:53;97938.94;;;16.14;65.71
13235;BME280;6683;48.506;9.050;2023-05-16T10:26:58;97934.78;;;16.18;65.62
13235;BME280;6683;48.506;9.050;2023-05-16T10:30:01;97935.94;;;16.22;65.42
13235;BME280;6683;48.506;9.050;2023-05-16T10:33:05;97934.44;;;16.26;65.65
13235;BME280;6683;48.506;9.050;2023-05-16T10:36:09;97934.34;;;16.33;65.25
13235;BME280;6683;48.506;9.050;2023-05-16T10:39:15;97938.97;;;16.37;65.18
13235;BME280;6683;48.506;9.050;2023-05-16T10:42:18;97927.41;;;16.43;65.25
13235;BME280;6683;48.506;9.050;2023-05-16T10:45:21;97926.94;;;16.46;65.17
13235;BME280;6683;48.506;9.050;2023-05-16T10:48:36;97927.34;;;16.50;65.09
13235;BME280;6683;48.506;9.050;2023-05-16T10:51:39;97923.16;;;16.54;64.94
13235;BME280;6683;48.506;9.050;2023-05-16T10:54:49;97923.94;;;16.54;65.35
13235;BME280;6683;48.506;9.050;2023-05-16T10:57:52;97922.94;;;16.55;64.96
13235;BME280;6683;48.506;9.050;2023-05-16T11:01:20;97927.44;;;16.55;64.97
13235;BME280;6683;48.506;9.050;2023-05-16T11:04:22;97924.78;;;16.55;64.79
13235;BME280;6683;48.506;9.050;2023-05-16T11:07:30;97936.69;;;16.52;64.79
13235;BME280;6683;48.506;9.050;2023-05-16T11:10:35;97933.66;;;16.49;64.73
13235;BME280;6683;48.506;9.050;2023-05-16T11:13:53;97932.50;;;16.45;65.08
13235;BME280;6683;48.506;9.050;2023-05-16T11:17:01;97943.03;;;16.40;64.90
13235;BME280;6683;48.506;9.050;2023-05-16T11:20:04;97948.25;;;16.35;64.81
13235;BME280;6683;48.506;9.050;2023-05-16T11:23:24;97955.06;;;16.31;65.17
13235;BME280;6683;48.506;9.050;2023-05-16T11:26:30;97951.44;;;16.25;65.08
13235;BME280;6683;48.506;9.050;2023-05-16T11:29:34;97958.06;;;16.23;65.36
13235;BME280;6683;48.506;9.050;2023-05-16T11:32:39;97961.16;;;16.20;65.32
13235;BME280;6683;48.506;9.050;2023-05-16T11:35:43;97957.09;;;16.17;65.49
13235;BME280;6683;48.506;9.050;2023-05-16T11:38:45;97962.31;;;16.12;65.25
13235;BME280;6683;48.506;9.050;2023-05-16T11:41:49;97958.47;;;16.08;65.38
13235;BME280;6683;48.506;9.050;2023-05-16T11:45:04;97964.69;;;16.02;65.76
13235;BME280;6683;48.506;9.050;2023-05-16T11:48:08;97963.50;;;15.98;65.56
13235;BME280;6683;48.506;9.050;2023-05-16T11:51:12;97968.25;;;15.96;65.82
13235;BME280;6683;48.506;9.050;2023-05-16T11:54:18;97973.00;;;15.94;65.64
13235;BME280;6683;48.506;9.050;2023-05-16T11:57:22;97967.91;;;15.92;65.96
13235;BME280;6683;48.506;9.050;2023-05-16T12:00:26;97968.97;;;15.91;65.90
13235;BME280;6683;48.506;9.050;2023-05-16T12:03:28;97965.72;;;15.89;66.13
13235;BME280;6683;48.506;9.050;2023-05-16T12:06:33;97973.06;;;15.87;66.31
13235;BME280;6683;48.506;9.050;2023-05-16T12:09:36;97979.47;;;15.86;66.34
13235;BME280;6683;48.506;9.050;2023-05-16T12:12:41;97973.19;;;15.81;66.37
13235;BME280;6683;48.506;9.050;2023-05-16T12:15:46;97979.19;;;15.76;66.20
13235;BME280;6683;48.506;9.050;2023-05-16T12:18:49;97984.00;;;15.68;66.37
13235;BME280;6683;48.506;9.050;2023-05-16T12:21:53;97976.09;;;15.61;66.32
13235;BME280;6683;48.506;9.050;2023-05-16T12:24:57;97978.59;;;15.56;66.51
13235;BME280;6683;48.506;9.050;2023-05-16T12:28:05;97992.59;;;15.52;66.69
13235;BME280;6683;48.506;9.050;2023-05-16T12:31:12;97982.84;;;15.46;66.58
13235;BME280;6683;48.506;9.050;2023-05-16T12:34:20;97986.53;;;15.45;66.67
13235;BME280;6683;48.506;9.050;2023-05-16T12:37:22;97989.56;;;15.42;67.19
13235;BME280;6683;48.506;9.050;2023-05-16T12:40:28;97986.91;;;15.42;67.12
13235;BME280;6683;48.506;9.050;2023-05-16T12:43:32;97983.66;;;15.40;67.22
13235;BME280;6683;48.506;9.050;2023-05-16T12:46:35;97991.03;;;15.44;67.37
13235;BME280;6683;48.506;9.050;2023-05-16T12:49:44;97993.25;;;15.47;67.32
13235;BME280;6683;48.506;9.050;2023-05-16T12:52:49;97991.41;;;15.48;67.45
13235;BME280;6683;48.506;9.050;2023-05-16T12:55:52;97993.03;;;15.49;67.34
13235;BME280;6683;48.506;9.050;2023-05-16T12:58:56;97990.59;;;15.47;67.35
13235;BME280;6683;48.506;9.050;2023-05-16T13:01:58;97992.06;;;15.43;67.46
13235;BME280;6683;48.506;9.050;2023-05-16T13:05:01;97993.06;;;15.42;67.55
13235;BME280;6683;48.506;9.050;2023-05-16T13:08:04;97995.13;;;15.40;67.63
13235;BME280;6683;48.506;9.050;2023-05-16T13:11:07;97996.78;;;15.41;67.65
13235;BME280;6683;48.506;9.050;2023-05-16T13:17:44;98000.63;;;15.45;68.08
13235;BME280;6683;48.506;9.050;2023-05-16T13:20:48;98007.38;;;15.48;67.89
13235;BME280;6683;48.506;9.050;2023-05-16T13:23:51;98009.56;;;15.51;68.08
13235;BME280;6683;48.506;9.050;2023-05-16T13:26:53;98013.88;;;15.52;67.87
13235;BME280;6683;48.506;9.050;2023-05-16T13:29:55;98019.56;;;15.55;67.99
13235;BME280;6683;48.506;9.050;2023-05-16T13:33:00;98019.78;;;15.54;68.07
13235;BME280;6683;48.506;9.050;2023-05-16T13:36:02;98033.09;;;15.54;67.56
13235;BME280;6683;48.506;9.050;2023-05-16T13:39:05;98027.25;;;15.45;67.44
13235;BME280;6683;48.506;9.050;2023-05-16T13:42:08;98027.94;;;15.34;67.26
13235;BME280;6683;48.506;9.050;2023-05-16T13:45:10;98030.06;;;15.26;67.48
13235;BME280;6683;48.506;9.050;2023-05-16T13:48:15;98033.81;;;15.18;67.51
13235;BME280;6683;48.506;9.050;2023-05-16T13:51:18;98038.38;;;15.11;67.46
13235;BME280;6683;48.506;9.050;2023-05-16T13:54:21;98040.31;;;15.04;67.50
13235;BME280;6683;48.506;9.050;2023-05-16T13:57:23;98040.97;;;14.99;67.49
13235;BME280;6683;48.506;9.050;2023-05-16T14:00:27;98051.78;;;14.98;67.63
13235;BME280;6683;48.506;9.050;2023-05-16T14:03:31;98048.75;;;14.94;67.62
13235;BME280;6683;48.506;9.050;2023-05-16T14:06:36;98050.81;;;14.92;67.51
13235;BME280;6683;48.506;9.050;2023-05-16T14:09:38;98055.53;;;14.90;67.52
13235;BME280;6683;48.506;9.050;2023-05-16T14:12:41;98056.78;;;14.88;67.51
13235;BME280;6683;48.506;9.050;2023-05-16T14:15:44;98061.50;;;14.86;67.48
13235;BME280;6683;48.506;9.050;2023-05-16T14:18:48;98059.28;;;14.83;67.37
13235;BME280;6683;48.506;9.050;2023-05-16T14:21:51;98069.09;;;14.82;67.65
13235;BME280;6683;48.506;9.050;2023-05-16T14:24:54;98056.81;;;14.81;67.54
13235;BME280;6683;48.506;9.050;2023-05-16T14:27:56;98061.53;;;14.79;67.47
13235;BME280;6683;48.506;9.050;2023-05-16T14:30:59;98063.22;;;14.74;67.34
13235;BME280;6683;48.506;9.050;2023-05-16T14:34:04;98062.47;;;14.67;67.16
13235;BME280;6683;48.506;9.050;2023-05-16T14:37:06;98070.88;;;14.64;67.44
13235;BME280;6683;48.506;9.050;2023-05-16T14:40:10;98070.28;;;14.62;67.66
13235;BME280;6683;48.506;9.050;2023-05-16T14:43:13;98070.50;;;14.60;67.46
13235;BME280;6683;48.506;9.050;2023-05-16T14:46:16;98084.19;;;14.57;67.46
13235;BME280;6683;48.506;9.050;2023-05-16T14:49:20;98081.53;;;14.57;67.58
13235;BME280;6683;48.506;9.050;2023-05-16T14:52:22;98085.81;;;14.58;67.24
13235;BME280;6683;48.506;9.050;2023-05-16T14:55:24;98088.47;;;14.58;67.46
13235;BME280;6683;48.506;9.050;2023-05-16T14:58:27;98098.06;;;14.59;67.61
13235;BME280;6683;48.506;9.050;2023-05-16T15:01:29;98097.25;;;14.59;67.65
13235;BME280;6683;48.506;9.050;2023-05-16T15:04:33;98093.59;;;14.60;67.80
13235;BME280;6683;48.506;9.050;2023-05-16T15:07:35;98098.06;;;14.59;67.37
13235;BME280;6683;48.506;9.050;2023-05-16T15:10:38;98098.06;;;14.59;67.16
13235;BME280;6683;48.506;9.050;2023-05-16T15:13:40;98106.03;;;14.59;67.41
13235;BME280;6683;48.506;9.050;2023-05-16T15:16:43;98099.72;;;14.60;67.41
13235;BME280;6683;48.506;9.050;2023-05-16T15:19:48;98104.22;;;14.60;67.46
13235;BME280;6683;48.506;9.050;2023-05-16T15:22:52;98097.66;;;14.62;67.38
13235;BME280;6683;48.506;9.050;2023-05-16T15:25:55;98101.94;;;14.63;67.17
13235;BME280;6683;48.506;9.050;2023-05-16T15:28:57;98102.53;;;14.65;67.25
13235;BME280;6683;48.506;9.050;2023-05-16T15:32:04;98100.47;;;14.67;67.30
13235;BME280;6683;48.506;9.050;2023-05-16T15:35:08;98099.22;;;14.70;67.11
13235;BME280;6683;48.506;9.050;2023-05-16T15:38:11;98094.28;;;14.73;67.31
13235;BME280;6683;48.506;9.050;2023-05-16T15:41:13;98097.34;;;14.77;67.23
13235;BME280;6683;48.506;9.050;2023-05-16T15:44:16;98097.97;;;14.79;67.19
13235;BME280;6683;48.506;9.050;2023-05-16T15:47:19;98100.16;;;14.82;67.37
13235;BME280;6683;48.506;9.050;2023-05-16T15:50:23;98102.59;;;14.83;67.35
13235;BME280;6683;48.506;9.050;2023-05-16T15:53:25;98099.53;;;14.86;67.39
13235;BME280;6683;48.506;9.050;2023-05-16T15:56:28;98103.38;;;14.90;67.24
13235;BME280;6683;48.506;9.050;2023-05-16T15:59:30;98094.59;;;14.90;67.49
13235;BME280;6683;48.506;9.050;2023-05-16T16:02:33;98092.31;;;14.93;67.34
13235;BME280;6683;48.506;9.050;2023-05-16T16:05:37;98091.06;;;14.96;67.53
13235;BME280;6683;48.506;9.050;2023-05-16T16:08:39;98093.06;;;15.00;67.46
13235;BME280;6683;48.506;9.050;2023-05-16T16:11:42;98094.25;;;15.04;67.01
13235;BME280;6683;48.506;9.050;2023-05-16T16:14:44;98094.44;;;15.09;67.32
13235;BME280;6683;48.506;9.050;2023-05-16T16:17:49;98100.13;;;15.13;67.38
13235;BME280;6683;48.506;9.050;2023-05-16T16:20:53;98090.91;;;15.15;67.17
13235;BME280;6683;48.506;9.050;2023-05-16T16:23:56;98097.41;;;15.19;67.28
13235;BME280;6683;48.506;9.050;2023-05-16T16:26:58;98103.09;;;15.23;67.06
13235;BME280;6683;48.506;9.050;2023-05-16T16:30:01;98097.00;;;15.23;66.79